Time;durP1;ratioP1;P1;durP2;ratioP2;P2;SDS_P1;SDS_P2;PMS_P1;PMS_P2;Temp;Humidity;BMP_temperature;BMP_pressure;BME280_temperature;BME280_humidity;BME280_pressure;Samples;Min_cycle;Max_cycle;Signal;HPM_P1;HPM_P2
2021/06/08 00:01:34;;;;;;;5.82;5.32;;;20.20;67.30;;;;;;6258513;23;20040;-70
2021/06/08 00:04:00;;;;;;;5.13;4.72;;;20.20;67.30;;;;;;6258086;23;20317;-70
2021/06/08 00:06:26;;;;;;;5.97;5.47;;;20.20;67.30;;;;;;6258046;23;20053;-71
2021/06/08 00:08:51;;;;;;;5.63;5.13;;;20.20;67.30;;;;;;6248352;23;20154;-70
2021/06/08 00:11:20;;;;;;;5.93;5.38;;;20.20;67.30;;;;;;6258651;23;20012;-71
2021/06/08 00:13:47;;;;;;;5.72;5.22;;;20.20;67.40;;;;;;6248250;23;20104;-70
2021/06/08 00:16:13;;;;;;;6.28;5.68;;;20.20;67.40;;;;;;6259437;23;20048;-70
2021/06/08 00:18:39;;;;;;;5.97;5.47;;;20.20;67.30;;;;;;6249337;23;20019;-70
2021/06/08 00:21:05;;;;;;;5.53;5.03;;;20.20;67.30;;;;;;6258825;23;20408;-71
2021/06/08 00:23:31;;;;;;;6.50;5.88;;;20.20;67.30;;;;;;6258519;23;20012;-70
2021/06/08 00:25:59;;;;;;;5.97;5.47;;;20.20;67.30;;;;;;6248050;23;20020;-70
2021/06/08 00:28:25;;;;;;;6.15;5.57;;;20.10;67.30;;;;;;6258194;23;20086;-70
2021/06/08 00:30:51;;;;;;;5.00;4.60;;;20.20;67.30;;;;;;6248359;23;20051;-71
2021/06/08 00:33:19;;;;;;;5.88;5.38;;;20.20;67.30;;;;;;6248276;23;20013;-71
2021/06/08 00:35:45;;;;;;;5.72;5.22;;;20.20;67.30;;;;;;6248398;23;20063;-70
2021/06/08 00:38:11;;;;;;;5.95;5.35;;;20.20;67.30;;;;;;6248370;23;20279;-70
2021/06/08 00:40:44;;;;;;;5.60;5.10;;;20.20;67.30;;;;;;6258223;23;20052;-71
2021/06/08 00:43:11;;;;;;;5.88;5.38;;;20.20;67.30;;;;;;6247913;23;20016;-70
2021/06/08 00:45:54;;;;;;;6.60;5.47;;;20.20;67.20;;;;;;6247783;23;20039;-71
2021/06/08 00:48:21;;;;;;;5.47;4.97;;;20.20;67.20;;;;;;6257707;23;20087;-71
2021/06/08 00:51:07;;;;;;;5.97;5.38;;;20.20;67.30;;;;;;6206018;23;20020;-71
2021/06/08 00:53:33;;;;;;;5.60;5.10;;;20.20;67.30;;;;;;6248695;23;20016;-70
2021/06/08 00:55:59;;;;;;;5.20;4.80;;;20.10;67.30;;;;;;6258826;23;20016;-70
2021/06/08 00:58:25;;;;;;;5.45;4.95;;;20.10;67.20;;;;;;6258126;23;20016;-70
2021/06/08 01:00:51;;;;;;;5.72;5.22;;;20.10;67.20;;;;;;6258079;23;20016;-70
2021/06/08 01:03:16;;;;;;;6.05;5.55;;;20.10;67.20;;;;;;6258004;23;20376;-71
2021/06/08 01:05:42;;;;;;;6.00;5.50;;;20.10;67.20;;;;;;6248366;23;20050;-70
2021/06/08 01:08:08;;;;;;;5.85;5.38;;;20.10;67.20;;;;;;6248179;23;20026;-70
2021/06/08 01:10:34;;;;;;;5.55;5.05;;;20.10;67.10;;;;;;6257844;23;20431;-71
2021/06/08 01:13:00;;;;;;;5.70;5.20;;;20.10;67.10;;;;;;6257922;23;20403;-71
2021/06/08 01:15:25;;;;;;;5.43;4.93;;;20.10;67.20;;;;;;6258266;23;20027;-70
2021/06/08 01:17:51;;;;;;;5.38;4.88;;;20.10;67.10;;;;;;6252476;23;20050;-70
2021/06/08 01:20:18;;;;;;;5.82;5.32;;;20.10;67.10;;;;;;6221466;23;20046;-71
2021/06/08 01:22:45;;;;;;;5.15;4.75;;;20.10;67.10;;;;;;6258205;23;20012;-71
2021/06/08 01:25:11;;;;;;;5.32;4.82;;;20.10;67.10;;;;;;6247866;23;20026;-70
2021/06/08 01:27:39;;;;;;;6.15;5.57;;;20.10;67.00;;;;;;6248673;23;20031;-70
2021/06/08 01:30:25;;;;;;;5.90;5.30;;;20.10;67.10;;;;;;6249524;23;20016;-70
2021/06/08 01:32:52;;;;;;;5.72;5.22;;;20.10;67.10;;;;;;6259747;23;20016;-70
2021/06/08 01:35:21;;;;;;;6.18;5.68;;;20.10;67.00;;;;;;6259323;23;20325;-70
2021/06/08 01:37:47;;;;;;;6.07;5.57;;;20.10;67.00;;;;;;6259852;23;20016;-70
2021/06/08 01:40:18;;;;;;;5.85;5.35;;;20.10;67.00;;;;;;6249388;23;20024;-70
2021/06/08 01:42:46;;;;;;;5.93;5.43;;;20.10;67.00;;;;;;6250693;23;20051;-70
2021/06/08 01:45:15;;;;;;;6.28;5.75;;;20.00;67.00;;;;;;6249727;23;20070;-71
2021/06/08 01:47:40;;;;;;;6.72;6.18;;;20.00;67.00;;;;;;6259638;23;20840;-70
2021/06/08 01:50:07;;;;;;;6.13;5.57;;;20.00;67.60;;;;;;6249496;23;20031;-71
2021/06/08 01:52:55;;;;;;;6.50;5.90;;;20.00;67.00;;;;;;6249627;23;20013;-70
2021/06/08 01:55:35;;;;;;;5.60;5.10;;;20.00;67.00;;;;;;6260041;23;20012;-71
2021/06/08 01:58:16;;;;;;;6.03;5.53;;;20.00;67.00;;;;;;6249314;23;20100;-70
2021/06/08 02:00:54;;;;;;;6.90;6.20;;;20.00;67.00;;;;;;6259783;23;20019;-70
2021/06/08 02:03:42;;;;;;;6.15;5.63;;;20.00;67.00;;;;;;6259362;23;20287;-70
2021/06/08 02:06:26;;;;;;;6.28;5.68;;;20.00;66.90;;;;;;6249267;23;20016;-71
2021/06/08 02:09:16;;;;;;;6.32;5.75;;;20.00;67.00;;;;;;6224120;23;20017;-70
2021/06/08 02:12:01;;;;;;;5.90;5.40;;;20.00;66.90;;;;;;6259370;23;20023;-70
2021/06/08 02:14:58;;;;;;;5.95;5.45;;;20.00;66.90;;;;;;6249150;23;20016;-71
2021/06/08 02:17:45;;;;;;;6.22;5.65;;;20.00;66.90;;;;;;6249170;23;20032;-70
2021/06/08 02:20:25;;;;;;;6.22;5.72;;;20.00;67.00;;;;;;6249756;23;20020;-71
2021/06/08 02:22:55;;;;;;;6.25;5.60;;;20.00;66.90;;;;;;6250028;23;20035;-71
2021/06/08 02:25:24;;;;;;;6.55;5.95;;;19.90;66.90;;;;;;6249391;23;20019;-71
2021/06/08 02:27:56;;;;;;;5.93;5.43;;;19.90;66.90;;;;;;6249595;23;20490;-70
2021/06/08 02:30:22;;;;;;;6.30;5.80;;;19.90;66.90;;;;;;6259537;23;20099;-70
2021/06/08 02:32:50;;;;;;;6.50;5.90;;;19.90;66.90;;;;;;6248992;23;20016;-70
2021/06/08 02:35:19;;;;;;;6.40;5.80;;;19.90;66.90;;;;;;6249969;23;20109;-70
2021/06/08 02:37:58;;;;;;;5.90;5.35;;;19.90;66.90;;;;;;6259131;23;20012;-71
2021/06/08 02:40:25;;;;;;;7.00;6.35;;;19.90;66.90;;;;;;6258836;23;20329;-71
2021/06/08 02:42:51;;;;;;;6.97;6.30;;;19.90;66.90;;;;;;6248526;23;20038;-70
2021/06/08 02:45:30;;;;;;;6.70;6.10;;;19.90;66.90;;;;;;6249849;23;20016;-70
2021/06/08 02:48:00;;;;;;;6.72;6.13;;;19.90;67.00;;;;;;6249332;23;20020;-70
2021/06/08 02:50:28;;;;;;;6.55;5.95;;;19.90;67.00;;;;;;6258625;23;20065;-70
2021/06/08 02:52:54;;;;;;;6.40;5.80;;;19.90;67.00;;;;;;6248559;23;20087;-71
2021/06/08 02:55:24;;;;;;;6.57;5.97;;;19.90;67.00;;;;;;6248716;23;20107;-70
2021/06/08 02:57:52;;;;;;;7.20;6.50;;;19.90;67.00;;;;;;6259476;23;20020;-71
2021/06/08 03:00:19;;;;;;;6.38;5.82;;;19.90;67.00;;;;;;6259638;23;20016;-71
2021/06/08 03:02:47;;;;;;;6.32;5.82;;;19.90;67.00;;;;;;6248553;23;20022;-70
2021/06/08 03:05:21;;;;;;;6.40;5.80;;;19.90;67.00;;;;;;6232608;23;20091;-70
2021/06/08 03:07:48;;;;;;;7.22;6.53;;;19.90;66.90;;;;;;6259100;23;20046;-70
2021/06/08 03:10:17;;;;;;;6.13;5.53;;;19.90;66.90;;;;;;6258934;23;20012;-71
2021/06/08 03:12:54;;;;;;;6.40;5.80;;;19.90;66.90;;;;;;6249114;23;20015;-71
2021/06/08 03:15:28;;;;;;;6.45;5.85;;;19.90;66.90;;;;;;6248719;23;20121;-71
2021/06/08 03:17:55;;;;;;;6.55;5.95;;;19.90;66.80;;;;;;6249147;23;20024;-70
2021/06/08 03:20:35;;;;;;;6.32;5.80;;;19.90;66.80;;;;;;6259121;23;20012;-70
2021/06/08 03:23:08;;;;;;;6.53;5.93;;;19.90;66.80;;;;;;6258649;23;20036;-71
2021/06/08 03:25:35;;;;;;;5.95;5.45;;;19.90;66.80;;;;;;6258650;23;20091;-70
2021/06/08 03:28:03;;;;;;;6.15;5.55;;;19.90;66.80;;;;;;6248553;23;20322;-70
2021/06/08 03:30:31;;;;;;;5.70;5.20;;;19.90;66.80;;;;;;6258343;23;20126;-70
2021/06/08 03:32:57;;;;;;;5.85;5.22;;;19.80;66.70;;;;;;6258384;23;20371;-70
2021/06/08 03:35:25;;;;;;;5.95;5.35;;;19.80;66.70;;;;;;6258270;23;20133;-70
2021/06/08 03:37:52;;;;;;;5.65;5.15;;;19.80;66.70;;;;;;6258511;23;20012;-70
2021/06/08 03:40:21;;;;;;;5.75;5.15;;;19.80;66.70;;;;;;6249347;23;20024;-71
2021/06/08 03:42:48;;;;;;;5.40;4.90;;;19.90;66.70;;;;;;6258502;23;20301;-70
2021/06/08 03:45:16;;;;;;;5.63;5.13;;;19.80;66.70;;;;;;6247934;23;20441;-70
2021/06/08 03:47:46;;;;;;;5.05;4.65;;;19.80;66.70;;;;;;6248589;23;20022;-70
2021/06/08 03:50:15;;;;;;;5.63;5.13;;;19.80;66.70;;;;;;6248156;23;20027;-70
2021/06/08 03:52:50;;;;;;;5.57;5.07;;;19.80;66.70;;;;;;6249016;23;20054;-70
2021/06/08 03:55:20;;;;;;;5.60;4.90;;;19.80;66.60;;;;;;6258313;23;20016;-70
2021/06/08 03:57:52;;;;;;;5.20;4.70;;;19.80;66.60;;;;;;6249140;23;20038;-70
2021/06/08 04:00:21;;;;;;;4.60;4.20;;;19.80;66.70;;;;;;6258077;23;20087;-70
2021/06/08 04:02:47;;;;;;;4.72;4.32;;;19.80;67.30;;;;;;6248323;23;20026;-70
2021/06/08 04:05:15;;;;;;;4.80;4.40;;;19.80;66.70;;;;;;6248299;23;20376;-70
2021/06/08 04:07:46;;;;;;;5.05;4.55;;;19.80;67.30;;;;;;6249213;23;20027;-70
2021/06/08 04:10:18;;;;;;;4.75;4.35;;;19.80;66.70;;;;;;6248116;23;20024;-70
2021/06/08 04:12:45;;;;;;;4.20;3.80;;;19.80;66.70;;;;;;6248131;23;20028;-70
2021/06/08 04:15:13;;;;;;;4.35;3.95;;;19.80;66.70;;;;;;6248304;23;20283;-70
2021/06/08 04:17:39;;;;;;;4.45;4.05;;;19.80;66.60;;;;;;6248905;23;20027;-70
2021/06/08 04:20:08;;;;;;;4.63;4.22;;;19.80;66.60;;;;;;6247781;23;20030;-70
2021/06/08 04:22:38;;;;;;;5.03;4.60;;;19.80;66.60;;;;;;6258322;23;20008;-71
2021/06/08 04:25:07;;;;;;;4.32;3.92;;;19.80;66.70;;;;;;6248788;23;20150;-70
2021/06/08 04:27:37;;;;;;;4.45;4.05;;;19.70;66.70;;;;;;6258358;23;20083;-70
2021/06/08 04:30:06;;;;;;;4.78;4.38;;;19.70;66.70;;;;;;6258662;23;20018;-70
2021/06/08 04:32:42;;;;;;;4.82;4.32;;;19.70;66.70;;;;;;6223909;23;20023;-70
2021/06/08 04:35:08;;;;;;;4.57;4.13;;;19.70;66.70;;;;;;6258285;23;20087;-70
2021/06/08 04:37:35;;;;;;;4.38;4.03;;;19.70;66.70;;;;;;6248901;23;20150;-70
2021/06/08 04:40:01;;;;;;;4.10;3.70;;;19.70;66.70;;;;;;6258321;23;20317;-70
2021/06/08 04:42:27;;;;;;;4.20;3.80;;;19.70;66.70;;;;;;6257764;23;20432;-70
2021/06/08 04:44:54;;;;;;;3.83;3.53;;;19.80;66.70;;;;;;6248334;23;20027;-70
2021/06/08 04:47:21;;;;;;;3.90;3.60;;;19.70;66.70;;;;;;6248309;23;20016;-70
2021/06/08 04:50:11;;;;;;;4.13;3.83;;;19.70;66.70;;;;;;6226033;23;20437;-70
2021/06/08 04:52:37;;;;;;;4.03;3.70;;;19.70;66.70;;;;;;6248923;23;20066;-70
2021/06/08 04:55:09;;;;;;;3.95;3.60;;;19.70;66.70;;;;;;6248099;23;20024;-70
2021/06/08 04:57:55;;;;;;;3.65;3.30;;;19.70;66.70;;;;;;6226291;23;20020;-70
2021/06/08 05:00:41;;;;;;;3.00;2.80;;;19.70;66.70;;;;;;6257724;23;20079;-71
2021/06/08 05:03:12;;;;;;;3.38;3.08;;;19.70;66.60;;;;;;6248295;23;20031;-70
2021/06/08 05:05:41;;;;;;;3.55;3.25;;;19.70;66.70;;;;;;6259394;23;20548;-70
2021/06/08 05:08:18;;;;;;;3.55;3.25;;;19.70;66.60;;;;;;6260046;23;20019;-70
2021/06/08 05:10:55;;;;;;;3.40;3.10;;;19.70;66.60;;;;;;6250818;23;20058;-70
2021/06/08 05:13:25;;;;;;;3.40;3.10;;;19.70;66.60;;;;;;6260610;23;20023;-70
2021/06/08 05:15:52;;;;;;;3.25;2.95;;;19.70;66.70;;;;;;6249812;23;20056;-70
2021/06/08 05:18:20;;;;;;;3.65;3.35;;;19.70;66.70;;;;;;6253439;23;20027;-70
2021/06/08 05:20:49;;;;;;;3.40;3.10;;;19.70;66.70;;;;;;6259756;23;20020;-70
2021/06/08 05:23:17;;;;;;;3.30;3.00;;;19.70;66.70;;;;;;6249543;23;20360;-71
2021/06/08 05:25:52;;;;;;;3.03;2.83;;;19.70;66.70;;;;;;6260431;23;20027;-70
2021/06/08 05:28:27;;;;;;;3.17;2.85;;;19.60;66.60;;;;;;6249518;23;20108;-70
2021/06/08 05:31:02;;;;;;;3.10;2.88;;;19.70;66.70;;;;;;6260033;23;20351;-70
2021/06/08 05:33:32;;;;;;;3.10;2.90;;;19.70;66.70;;;;;;6249869;23;20027;-70
2021/06/08 05:35:58;;;;;;;3.38;3.08;;;19.70;66.80;;;;;;6259741;23;20448;-70
2021/06/08 05:38:35;;;;;;;3.00;2.80;;;19.60;66.70;;;;;;6249933;23;20317;-71
2021/06/08 05:41:06;;;;;;;3.35;3.05;;;19.70;66.80;;;;;;6260063;23;20027;-70
2021/06/08 05:43:32;;;;;;;3.80;3.50;;;19.70;66.90;;;;;;6260611;23;20016;-70
2021/06/08 05:45:59;;;;;;;3.53;3.22;;;19.60;66.90;;;;;;6259660;23;20016;-70
2021/06/08 05:48:28;;;;;;;3.38;3.08;;;19.60;66.90;;;;;;6249421;23;20095;-70
2021/06/08 05:51:00;;;;;;;3.20;2.90;;;19.60;66.90;;;;;;6259830;23;20074;-71
2021/06/08 05:53:28;;;;;;;3.30;3.00;;;19.60;66.80;;;;;;6249641;23;20020;-70
2021/06/08 05:55:55;;;;;;;3.15;2.85;;;19.60;66.90;;;;;;6260109;23;20489;-70
2021/06/08 05:58:25;;;;;;;3.38;3.08;;;19.70;67.00;;;;;;6249576;23;20024;-70
2021/06/08 06:00:58;;;;;;;3.03;2.83;;;19.60;67.00;;;;;;6260195;23;20078;-71
2021/06/08 06:03:26;;;;;;;3.35;3.08;;;19.60;66.90;;;;;;6260013;23;20020;-70
2021/06/08 06:05:55;;;;;;;3.35;3.05;;;19.60;66.90;;;;;;6249634;23;20016;-70
2021/06/08 06:08:21;;;;;;;2.97;2.78;;;19.60;66.90;;;;;;6249792;23;20016;-70
2021/06/08 06:10:48;;;;;;;2.92;2.70;;;19.60;66.90;;;;;;6248920;23;20421;-70
2021/06/08 06:13:21;;;;;;;2.63;2.42;;;19.60;66.90;;;;;;6259511;23;20015;-71
2021/06/08 06:15:48;;;;;;;3.13;2.85;;;19.60;67.00;;;;;;6248993;23;20017;-70
2021/06/08 06:18:16;;;;;;;3.08;2.58;;;19.60;67.00;;;;;;6249021;23;20039;-70
2021/06/08 06:21:02;;;;;;;2.80;2.60;;;19.60;67.00;;;;;;6227424;23;20016;-71
2021/06/08 06:23:28;;;;;;;3.15;2.80;;;19.60;67.00;;;;;;6259569;23;20070;-70
2021/06/08 06:26:05;;;;;;;2.90;2.70;;;19.60;67.00;;;;;;6249356;23;20016;-70
2021/06/08 06:28:51;;;;;;;2.58;2.38;;;19.60;67.00;;;;;;6227475;23;20023;-70
2021/06/08 06:31:23;;;;;;;2.60;2.40;;;19.60;67.00;;;;;;6248692;23;20317;-71
2021/06/08 06:33:55;;;;;;;2.60;2.40;;;19.60;67.00;;;;;;6249501;23;20048;-70
2021/06/08 06:36:32;;;;;;;2.53;2.33;;;19.60;67.00;;;;;;6249264;23;20012;-71
2021/06/08 06:39:26;;;;;;;2.78;2.58;;;19.60;67.00;;;;;;6248946;23;20030;-70
2021/06/08 06:41:54;;;;;;;2.70;2.50;;;19.60;66.90;;;;;;6245626;23;20020;-70
2021/06/08 06:44:23;;;;;;;1.92;1.77;;;19.60;67.00;;;;;;6249191;23;20027;-71
2021/06/08 06:46:51;;;;;;;2.28;2.08;;;19.60;67.00;;;;;;6258776;23;20015;-70
2021/06/08 06:49:17;;;;;;;2.10;1.90;;;19.60;67.10;;;;;;6258712;23;20313;-70
2021/06/08 06:51:45;;;;;;;2.80;2.60;;;19.60;67.70;;;;;;6259086;23;20301;-71
2021/06/08 06:54:12;;;;;;;2.28;2.08;;;19.60;67.00;;;;;;6248396;23;20334;-70
2021/06/08 06:56:44;;;;;;;2.30;2.10;;;19.60;67.10;;;;;;6259237;23;20012;-71
2021/06/08 06:59:09;;;;;;;2.30;2.15;;;19.60;67.10;;;;;;6259266;23;20433;-71
2021/06/08 07:01:37;;;;;;;2.35;2.15;;;19.60;67.10;;;;;;6249522;23;20379;-70
2021/06/08 07:04:04;;;;;;;2.50;2.30;;;19.60;67.10;;;;;;6249201;23;20074;-70
2021/06/08 07:06:31;;;;;;;2.60;2.40;;;19.60;67.10;;;;;;6258562;23;20294;-70
2021/06/08 07:08:59;;;;;;;3.20;2.47;;;19.60;67.10;;;;;;6258917;23;20012;-71
2021/06/08 07:11:27;;;;;;;2.08;1.95;;;19.60;67.10;;;;;;6259022;23;20044;-70
2021/06/08 07:13:54;;;;;;;2.35;2.15;;;19.60;67.10;;;;;;6258475;23;20019;-70
2021/06/08 07:16:23;;;;;;;2.40;2.20;;;19.60;67.10;;;;;;6258832;23;20436;-70
2021/06/08 07:18:49;;;;;;;2.28;2.08;;;19.70;67.20;;;;;;6248333;23;20031;-70
2021/06/08 07:21:16;;;;;;;2.38;2.03;;;19.70;67.20;;;;;;6248531;23;20058;-71
2021/06/08 07:23:47;;;;;;;2.30;2.10;;;19.70;67.10;;;;;;6248623;23;20031;-71
2021/06/08 07:26:17;;;;;;;2.38;2.17;;;19.70;67.10;;;;;;6258780;23;20096;-71
2021/06/08 07:29:11;;;;;;;2.17;1.98;;;19.70;67.10;;;;;;6226861;23;20023;-71
2021/06/08 07:32:00;;;;;;;2.10;1.90;;;19.70;67.80;;;;;;6232446;23;20065;-71
2021/06/08 07:34:59;;;;;;;2.60;2.30;;;19.70;67.40;;;;;;6258609;23;20012;-71
2021/06/08 07:37:32;;;;;;;2.47;2.28;;;19.70;67.50;;;;;;6248709;23;20020;-70
2021/06/08 07:40:09;;;;;;;2.00;1.88;;;19.70;67.50;;;;;;6248321;23;20026;-70
2021/06/08 07:42:47;;;;;;;2.08;1.95;;;19.70;67.60;;;;;;6248118;23;20012;-70
2021/06/08 07:45:20;;;;;;;2.25;2.05;;;19.70;67.60;;;;;;6258630;23;20089;-71
2021/06/08 07:48:08;;;;;;;2.28;2.08;;;19.80;67.70;;;;;;6226467;23;20024;-70
2021/06/08 07:50:49;;;;;;;2.55;2.35;;;19.70;67.70;;;;;;6258446;23;20019;-71
2021/06/08 07:53:20;;;;;;;2.10;1.98;;;19.80;67.80;;;;;;6248177;23;20027;-70
2021/06/08 07:55:49;;;;;;;2.30;2.10;;;19.80;67.80;;;;;;6248213;23;20054;-72
2021/06/08 07:58:23;;;;;;;2.22;2.00;;;19.80;67.90;;;;;;6248553;23;20016;-70
2021/06/08 08:00:50;;;;;;;2.03;1.92;;;19.80;67.90;;;;;;6248745;23;20043;-70
2021/06/08 08:03:39;;;;;;;2.00;1.80;;;19.80;67.90;;;;;;6225760;23;20027;-70
2021/06/08 08:06:09;;;;;;;2.05;1.80;;;19.80;68.50;;;;;;6248325;23;20111;-71
2021/06/08 08:08:48;;;;;;;2.25;2.05;;;19.80;68.00;;;;;;6258072;23;20016;-70
2021/06/08 08:11:19;;;;;;;2.10;1.88;;;19.90;68.00;;;;;;6248714;23;20027;-70
2021/06/08 08:14:05;;;;;;;2.33;2.13;;;19.90;68.60;;;;;;6226745;23;20039;-70
2021/06/08 08:16:52;;;;;;;2.10;1.90;;;19.90;68.00;;;;;;6226805;22;20099;-70
2021/06/08 08:19:39;;;;;;;2.40;1.65;;;19.90;68.00;;;;;;6226217;23;20031;-71
2021/06/08 08:22:25;;;;;;;2.30;2.10;;;19.90;68.10;;;;;;6227101;23;20024;-70
2021/06/08 08:25:11;;;;;;;1.95;1.75;;;19.90;68.10;;;;;;6226373;23;20055;-71
2021/06/08 08:27:58;;;;;;;1.88;1.77;;;19.90;68.10;;;;;;6226513;23;20309;-70
2021/06/08 08:30:33;;;;;;;2.17;1.98;;;20.00;68.10;;;;;;6258438;23;20039;-70
2021/06/08 08:33:14;;;;;;;1.60;1.50;;;20.00;68.10;;;;;;6247695;23;20370;-71
2021/06/08 08:35:50;;;;;;;1.73;1.63;;;20.00;68.10;;;;;;6248460;23;20070;-70
2021/06/08 08:38:17;;;;;;;2.25;1.83;;;20.00;68.10;;;;;;6258630;23;20019;-71
2021/06/08 08:40:49;;;;;;;1.70;1.60;;;20.00;68.10;;;;;;6249610;23;20016;-70
2021/06/08 08:43:17;;;;;;;2.03;1.58;;;20.00;68.10;;;;;;6249895;23;20016;-71
2021/06/08 08:45:48;;;;;;;1.65;1.55;;;20.00;68.10;;;;;;6259904;23;20386;-70
2021/06/08 08:48:16;;;;;;;1.83;1.65;;;20.10;68.20;;;;;;6250384;23;20020;-70
2021/06/08 08:50:44;;;;;;;1.90;1.70;;;20.10;68.10;;;;;;6259919;23;20016;-70
2021/06/08 08:53:19;;;;;;;2.03;1.92;;;20.10;68.20;;;;;;6249892;23;20066;-71
2021/06/08 08:56:05;;;;;;;1.92;1.80;;;20.10;68.70;;;;;;6227598;23;20016;-70
2021/06/08 08:58:43;;;;;;;2.03;1.83;;;20.10;68.20;;;;;;6260737;23;20016;-70
2021/06/08 09:01:11;;;;;;;2.10;1.90;;;20.10;68.20;;;;;;6250894;23;20015;-70
2021/06/08 09:03:38;;;;;;;1.52;1.40;;;20.20;68.20;;;;;;6259758;23;20090;-71
2021/06/08 09:06:04;;;;;;;1.90;1.60;;;20.20;68.20;;;;;;6233928;23;20027;-70
2021/06/08 09:08:30;;;;;;;1.77;1.67;;;20.20;68.10;;;;;;6260187;23;20062;-70
2021/06/08 09:10:59;;;;;;;1.83;1.60;;;20.20;68.10;;;;;;6250667;23;20016;-70
2021/06/08 09:13:26;;;;;;;1.67;1.58;;;20.20;68.10;;;;;;6260179;23;20453;-71
2021/06/08 09:15:52;;;;;;;1.70;1.60;;;20.20;68.10;;;;;;6233926;23;20016;-71
2021/06/08 09:18:22;;;;;;;1.80;1.70;;;20.20;68.10;;;;;;6252724;23;20024;-70
2021/06/08 09:20:48;;;;;;;1.85;1.75;;;20.20;68.00;;;;;;6259754;23;20318;-70
2021/06/08 09:23:21;;;;;;;1.70;1.50;;;20.20;68.00;;;;;;6249480;23;20461;-70
2021/06/08 09:25:48;;;;;;;1.90;1.70;;;20.30;68.10;;;;;;6259929;23;20016;-70
2021/06/08 09:28:34;;;;;;;1.60;1.50;;;20.20;68.00;;;;;;6249936;23;20016;-70
2021/06/08 09:31:02;;;;;;;1.70;1.60;;;20.30;68.10;;;;;;6259773;23;20012;-71
2021/06/08 09:33:43;;;;;;;2.70;1.70;;;20.30;68.00;;;;;;6260063;23;20012;-71
2021/06/08 09:36:10;;;;;;;1.70;1.60;;;20.30;68.10;;;;;;6259848;23;20023;-70
2021/06/08 09:38:41;;;;;;;1.70;1.60;;;20.30;68.00;;;;;;6260479;23;20083;-71
2021/06/08 09:41:33;;;;;;;2.10;1.50;;;20.30;68.00;;;;;;6259465;23;20366;-71
2021/06/08 09:44:11;;;;;;;1.65;1.50;;;20.30;68.00;;;;;;6237993;23;20031;-70
2021/06/08 09:46:54;;;;;;;1.40;1.30;;;20.30;68.00;;;;;;6233330;23;20055;-71
2021/06/08 09:49:34;;;;;;;1.52;1.40;;;20.30;67.90;;;;;;6250019;23;20020;-70
2021/06/08 09:52:07;;;;;;;1.90;1.60;;;20.40;68.00;;;;;;6259458;23;20066;-70
2021/06/08 09:54:37;;;;;;;1.30;1.20;;;20.40;68.00;;;;;;6248928;23;20016;-71
2021/06/08 09:57:28;;;;;;;1.90;1.50;;;20.40;68.00;;;;;;6259649;23;20016;-71
2021/06/08 10:00:14;;;;;;;2.55;1.17;;;20.40;67.90;;;;;;6223337;23;20310;-71
2021/06/08 10:02:49;;;;;;;1.80;1.25;;;20.40;67.90;;;;;;6259804;23;20398;-70
2021/06/08 10:05:30;;;;;;;1.40;1.27;;;20.40;67.90;;;;;;6259591;23;20016;-70
2021/06/08 10:07:59;;;;;;;1.67;1.55;;;20.40;67.90;;;;;;6249437;23;20027;-71
2021/06/08 10:10:34;;;;;;;1.33;1.23;;;20.40;67.90;;;;;;6249562;23;20024;-70
2021/06/08 10:13:02;;;;;;;1.67;1.30;;;20.40;67.90;;;;;;6259927;23;20023;-71
2021/06/08 10:15:34;;;;;;;2.60;1.45;;;20.40;67.80;;;;;;6259154;23;20357;-71
2021/06/08 10:18:09;;;;;;;1.70;1.35;;;20.40;67.80;;;;;;6249033;23;20024;-70
2021/06/08 10:20:41;;;;;;;2.15;1.70;;;20.40;67.80;;;;;;6259654;23;20098;-70
2021/06/08 10:23:25;;;;;;;1.73;1.50;;;20.40;67.80;;;;;;6249031;23;20016;-71
2021/06/08 10:25:52;;;;;;;;;;;20.40;67.80;;;;;;6259546;23;20019;-70
2021/06/08 10:28:19;;;;;;;1.77;1.40;;;20.40;67.80;;;;;;6259240;23;20252;-70
2021/06/08 10:30:47;;;;;;;2.08;1.50;;;20.40;67.90;;;;;;6260077;23;20020;-71
2021/06/08 10:33:22;;;;;;;1.38;1.27;;;20.50;67.80;;;;;;6259238;23;20012;-70
2021/06/08 10:35:50;;;;;;;1.65;1.40;;;20.40;67.80;;;;;;6259197;23;20444;-71
2021/06/08 10:38:16;;;;;;;2.22;1.60;;;20.50;67.80;;;;;;6259339;23;20494;-70
2021/06/08 10:40:48;;;;;;;1.23;1.10;;;20.40;67.70;;;;;;6258893;23;20421;-71
2021/06/08 10:43:24;;;;;;;1.77;1.17;;;20.40;67.70;;;;;;6248756;23;20097;-70
2021/06/08 10:45:54;;;;;;;1.50;1.40;;;20.50;67.80;;;;;;6259077;23;20420;-70
2021/06/08 10:48:26;;;;;;;1.50;1.38;;;20.40;67.70;;;;;;6258801;23;20318;-71
2021/06/08 10:51:10;;;;;;;1.33;1.23;;;20.40;68.30;;;;;;6259063;23;20023;-70
2021/06/08 10:53:40;;;;;;;1.55;1.38;;;20.50;67.70;;;;;;6259417;23;20020;-71
2021/06/08 10:56:29;;;;;;;1.13;1.02;;;20.40;67.70;;;;;;6232881;23;20020;-71
2021/06/08 10:59:00;;;;;;;1.75;1.48;;;20.50;67.70;;;;;;6249808;23;20024;-71
2021/06/08 11:01:41;;;;;;;;;;;20.50;67.70;;;;;;6259080;23;20436;-71
2021/06/08 11:04:11;;;;;;;1.45;1.35;;;20.40;67.60;;;;;;6248489;23;19923;-70
2021/06/08 11:06:37;;;;;;;1.83;1.38;;;20.50;67.80;;;;;;6248865;23;20039;-70
2021/06/08 11:09:08;;;;;;;1.48;1.38;;;20.50;67.70;;;;;;6258619;23;20425;-71
2021/06/08 11:11:56;;;;;;;1.63;1.52;;;20.50;67.70;;;;;;6252821;23;20016;-71
2021/06/08 11:14:37;;;;;;;1.58;1.33;;;20.50;67.70;;;;;;6250024;23;20040;-70
2021/06/08 11:17:05;;;;;;;1.63;1.27;;;20.40;67.70;;;;;;6257224;22;20263;-71
2021/06/08 11:19:41;;;;;;;1.50;1.40;;;20.50;67.70;;;;;;6258969;23;20087;-71
2021/06/08 11:22:10;;;;;;;1.75;1.40;;;20.50;67.70;;;;;;6248475;23;20020;-71
2021/06/08 11:24:38;;;;;;;1.40;1.30;;;20.50;67.70;;;;;;6259331;23;20016;-71
2021/06/08 11:27:04;;;;;;;1.60;1.50;;;20.50;67.70;;;;;;6259516;23;20016;-71
2021/06/08 11:29:57;;;;;;;1.42;1.17;;;20.50;67.70;;;;;;6259433;23;20024;-71
2021/06/08 11:32:29;;;;;;;1.20;1.10;;;20.50;67.60;;;;;;6248169;23;20012;-70
2021/06/08 11:35:07;;;;;;;1.88;1.35;;;20.50;67.70;;;;;;6248417;23;20016;-70
2021/06/08 11:38:06;;;;;;;1.55;1.30;;;20.50;67.60;;;;;;6258697;23;20023;-70
2021/06/08 11:40:35;;;;;;;1.38;1.20;;;20.50;67.60;;;;;;6184156;23;20020;-70
2021/06/08 11:43:03;;;;;;;1.50;1.40;;;20.50;67.70;;;;;;6258156;23;20413;-70
2021/06/08 11:45:32;;;;;;;1.50;1.40;;;20.50;67.70;;;;;;6258916;23;20023;-70
2021/06/08 11:47:58;;;;;;;2.67;1.58;;;20.50;67.70;;;;;;6249341;23;20020;-70
2021/06/08 11:50:41;;;;;;;1.40;1.20;;;20.50;67.70;;;;;;6248514;23;20299;-71
2021/06/08 11:53:09;;;;;;;1.42;1.13;;;20.50;67.60;;;;;;6259362;23;20091;-70
2021/06/08 11:55:35;;;;;;;1.25;1.15;;;20.50;67.70;;;;;;6258460;23;20086;-70
2021/06/08 11:58:01;;;;;;;1.30;1.20;;;20.50;67.70;;;;;;6248566;23;20020;-70
2021/06/08 12:00:50;;;;;;;1.52;1.42;;;20.50;67.60;;;;;;6248237;23;20096;-71
2021/06/08 12:03:29;;;;;;;1.63;1.52;;;20.50;67.60;;;;;;6259050;23;20012;-71
2021/06/08 12:05:57;;;;;;;1.40;1.30;;;20.50;67.60;;;;;;6258444;23;20027;-71
2021/06/08 12:08:24;;;;;;;1.38;1.27;;;20.50;67.70;;;;;;6258780;23;20034;-71
2021/06/08 12:10:53;;;;;;;1.17;1.08;;;20.50;67.70;;;;;;6248502;23;20020;-71
2021/06/08 12:13:27;;;;;;;1.60;1.20;;;20.50;67.70;;;;;;6248245;23;20089;-70
2021/06/08 12:15:54;;;;;;;1.60;1.50;;;20.50;67.60;;;;;;6258633;23;20008;-71
2021/06/08 12:18:37;;;;;;;1.65;1.35;;;20.50;67.70;;;;;;6251918;23;20162;-72
2021/06/08 12:21:14;;;;;;;1.63;1.40;;;20.50;67.70;;;;;;6248475;23;20368;-71
2021/06/08 12:23:40;;;;;;;1.48;1.38;;;20.50;67.70;;;;;;6258265;23;20270;-71
2021/06/08 12:26:14;;;;;;;1.52;1.33;;;20.50;67.70;;;;;;6258193;23;20047;-71
2021/06/08 12:29:03;;;;;;;1.48;1.38;;;20.50;67.70;;;;;;6248111;23;20099;-70
2021/06/08 12:31:30;;;;;;;2.72;1.88;;;20.50;67.70;;;;;;6232955;23;20350;-70
2021/06/08 12:33:58;;;;;;;2.30;1.70;;;20.50;67.80;;;;;;6248339;23;20325;-70
2021/06/08 12:36:24;;;;;;;1.70;1.33;;;20.50;67.70;;;;;;6248167;23;20082;-70
2021/06/08 12:38:52;;;;;;;1.75;1.60;;;20.50;67.70;;;;;;6222095;23;20020;-71
2021/06/08 12:41:26;;;;;;;1.70;1.60;;;20.50;67.70;;;;;;6257918;23;20019;-71
2021/06/08 12:43:55;;;;;;;1.58;1.45;;;20.50;67.70;;;;;;6257743;23;20426;-71
2021/06/08 12:46:41;;;;;;;1.30;1.17;;;20.60;67.80;;;;;;6226267;23;20016;-70
2021/06/08 12:49:15;;;;;;;1.67;1.33;;;20.50;67.80;;;;;;6258237;23;20440;-71
2021/06/08 12:51:56;;;;;;;1.45;1.35;;;20.50;67.80;;;;;;6258373;23;20012;-71
2021/06/08 12:54:41;;;;;;;2.00;1.50;;;20.50;67.80;;;;;;6248774;23;20090;-71
2021/06/08 12:57:28;;;;;;;2.22;1.58;;;20.50;67.80;;;;;;6247758;23;20443;-70
2021/06/08 13:00:11;;;;;;;2.83;2.08;;;20.50;67.80;;;;;;6247648;23;20016;-75
2021/06/08 13:02:37;;;;;;;5.22;1.95;;;20.50;67.90;;;;;;6248139;23;20016;-71
2021/06/08 13:05:08;;;;;;;3.95;2.20;;;20.60;68.30;;;;;;6257417;23;20016;-70
2021/06/08 13:07:37;;;;;;;7.00;2.70;;;20.60;68.30;;;;;;6258049;23;20070;-70
2021/06/08 13:10:09;;;;;;;6.65;3.30;;;20.60;68.40;;;;;;6247352;23;20016;-70
2021/06/08 13:12:52;;;;;;;6.40;2.75;;;20.60;68.20;;;;;;6257692;23;20077;-71
2021/06/08 13:15:27;;;;;;;4.93;2.93;;;20.60;68.10;;;;;;6258120;23;20298;-70